sensor_id;sensor_type;location;lat;lon;timestamp;pressure;altitude;pressure_sealevel;temperature;humidity
62632;BME280;48703;51.248;-0.546;2022-08-19T00:00:20;100727;;;19.26;100.00
62632;BME280;48703;51.248;-0.546;2022-08-19T00:03:21;100736;;;19.26;100.00
62632;BME280;48703;51.248;-0.546;2022-08-19T00:06:23;100735;;;19.26;100.00
62632;BME280;48703;51.248;-0.546;2022-08-19T00:09:25;100733;;;19.27;100.00
62632;BME280;48703;51.248;-0.546;2022-08-19T00:12:27;100723;;;19.28;100.00
62632;BME280;48703;51.248;-0.546;2022-08-19T00:15:29;100721;;;19.27;100.00
62632;BME280;48703;51.248;-0.546;2022-08-19T00:18:31;100715;;;19.27;100.00
62632;BME280;48703;51.248;-0.546;2022-08-19T00:21:33;100715;;;19.28;100.00
62632;BME280;48703;51.248;-0.546;2022-08-19T00:24:34;100714;;;19.27;100.00
62632;BME280;48703;51.248;-0.546;2022-08-19T00:27:36;100710;;;19.27;100.00
62632;BME280;48703;51.248;-0.546;2022-08-19T00:30:38;100712;;;19.27;100.00
62632;BME280;48703;51.248;-0.546;2022-08-19T00:33:40;100709;;;19.28;100.00
62632;BME280;48703;51.248;-0.546;2022-08-19T00:36:42;100709;;;19.28;100.00
62632;BME280;48703;51.248;-0.546;2022-08-19T00:39:44;100710;;;19.29;100.00
62632;BME280;48703;51.248;-0.546;2022-08-19T00:42:46;100709;;;19.29;100.00
62632;BME280;48703;51.248;-0.546;2022-08-19T00:45:48;100708;;;19.28;100.00
62632;BME280;48703;51.248;-0.546;2022-08-19T00:48:50;100705;;;19.28;100.00
62632;BME280;48703;51.248;-0.546;2022-08-19T00:51:53;100698;;;19.28;100.00
62632;BME280;48703;51.248;-0.546;2022-08-19T00:54:53;100693;;;19.27;100.00
62632;BME280;48703;51.248;-0.546;2022-08-19T00:57:56;100689;;;19.27;100.00
62632;BME280;48703;51.248;-0.546;2022-08-19T01:00:57;100686;;;19.26;100.00
62632;BME280;48703;51.248;-0.546;2022-08-19T01:03:59;100681;;;19.27;100.00
62632;BME280;48703;51.248;-0.546;2022-08-19T01:07:01;100679;;;19.25;100.00
62632;BME280;48703;51.248;-0.546;2022-08-19T01:10:03;100682;;;19.25;100.00
62632;BME280;48703;51.248;-0.546;2022-08-19T01:13:05;100685;;;19.23;100.00
62632;BME280;48703;51.248;-0.546;2022-08-19T01:16:08;100687;;;19.20;100.00
62632;BME280;48703;51.248;-0.546;2022-08-19T01:19:10;100688;;;19.19;100.00
62632;BME280;48703;51.248;-0.546;2022-08-19T01:22:12;100688;;;19.19;100.00
62632;BME280;48703;51.248;-0.546;2022-08-19T01:25:12;100691;;;19.19;100.00
62632;BME280;48703;51.248;-0.546;2022-08-19T01:28:15;100691;;;19.20;100.00
62632;BME280;48703;51.248;-0.546;2022-08-19T01:31:18;100691;;;19.20;100.00
62632;BME280;48703;51.248;-0.546;2022-08-19T01:34:18;100696;;;19.19;100.00
62632;BME280;48703;51.248;-0.546;2022-08-19T01:37:20;100696;;;19.21;100.00
62632;BME280;48703;51.248;-0.546;2022-08-19T01:40:23;100693;;;19.21;100.00
62632;BME280;48703;51.248;-0.546;2022-08-19T01:43:24;100695;;;19.22;100.00
62632;BME280;48703;51.248;-0.546;2022-08-19T01:46:25;100691;;;19.23;100.00
62632;BME280;48703;51.248;-0.546;2022-08-19T01:49:27;100687;;;19.24;100.00
62632;BME280;48703;51.248;-0.546;2022-08-19T01:52:29;100685;;;19.25;100.00
62632;BME280;48703;51.248;-0.546;2022-08-19T01:55:31;100683;;;19.24;100.00
62632;BME280;48703;51.248;-0.546;2022-08-19T01:58:34;100687;;;19.24;100.00
62632;BME280;48703;51.248;-0.546;2022-08-19T02:01:35;100684;;;19.24;100.00
62632;BME280;48703;51.248;-0.546;2022-08-19T02:04:37;100684;;;19.25;100.00
62632;BME280;48703;51.248;-0.546;2022-08-19T02:07:39;100686;;;19.26;100.00
62632;BME280;48703;51.248;-0.546;2022-08-19T02:10:41;100690;;;19.26;100.00
62632;BME280;48703;51.248;-0.546;2022-08-19T02:13:43;100690;;;19.26;100.00
62632;BME280;48703;51.248;-0.546;2022-08-19T02:16:44;100689;;;19.27;100.00
62632;BME280;48703;51.248;-0.546;2022-08-19T02:19:46;100689;;;19.27;100.00
62632;BME280;48703;51.248;-0.546;2022-08-19T02:22:48;100685;;;19.27;100.00
62632;BME280;48703;51.248;-0.546;2022-08-19T02:25:51;100683;;;19.27;100.00
62632;BME280;48703;51.248;-0.546;2022-08-19T02:28:52;100684;;;19.27;100.00
62632;BME280;48703;51.248;-0.546;2022-08-19T02:31:54;100686;;;19.26;100.00
62632;BME280;48703;51.248;-0.546;2022-08-19T02:34:56;100687;;;19.26;100.00
62632;BME280;48703;51.248;-0.546;2022-08-19T02:37:58;100689;;;19.27;100.00
62632;BME280;48703;51.248;-0.546;2022-08-19T02:41:00;100689;;;19.27;100.00
62632;BME280;48703;51.248;-0.546;2022-08-19T02:44:02;100691;;;19.27;100.00
62632;BME280;48703;51.248;-0.546;2022-08-19T02:47:03;100692;;;19.27;100.00
62632;BME280;48703;51.248;-0.546;2022-08-19T02:50:06;100696;;;19.28;100.00
62632;BME280;48703;51.248;-0.546;2022-08-19T02:53:07;100698;;;19.28;100.00
62632;BME280;48703;51.248;-0.546;2022-08-19T02:56:09;100699;;;19.28;100.00
62632;BME280;48703;51.248;-0.546;2022-08-19T02:59:11;100698;;;19.27;100.00
62632;BME280;48703;51.248;-0.546;2022-08-19T03:02:13;100699;;;19.28;100.00
62632;BME280;48703;51.248;-0.546;2022-08-19T03:05:15;100701;;;19.28;100.00
62632;BME280;48703;51.248;-0.546;2022-08-19T03:08:17;100703;;;19.29;100.00
62632;BME280;48703;51.248;-0.546;2022-08-19T03:11:20;100706;;;19.27;100.00
62632;BME280;48703;51.248;-0.546;2022-08-19T03:14:20;100702;;;19.25;100.00
62632;BME280;48703;51.248;-0.546;2022-08-19T03:17:22;100700;;;19.25;100.00
62632;BME280;48703;51.248;-0.546;2022-08-19T03:20:24;100699;;;19.23;100.00
62632;BME280;48703;51.248;-0.546;2022-08-19T03:23:26;100701;;;19.23;100.00
62632;BME280;48703;51.248;-0.546;2022-08-19T03:26:28;100701;;;19.24;100.00
62632;BME280;48703;51.248;-0.546;2022-08-19T03:29:30;100705;;;19.23;100.00
62632;BME280;48703;51.248;-0.546;2022-08-19T03:32:32;100708;;;19.23;100.00
62632;BME280;48703;51.248;-0.546;2022-08-19T03:35:34;100711;;;19.23;100.00
62632;BME280;48703;51.248;-0.546;2022-08-19T03:38:36;100715;;;19.21;100.00
62632;BME280;48703;51.248;-0.546;2022-08-19T03:41:38;100709;;;19.21;100.00
62632;BME280;48703;51.248;-0.546;2022-08-19T03:44:39;100708;;;19.22;100.00
62632;BME280;48703;51.248;-0.546;2022-08-19T03:47:41;100708;;;19.22;100.00
62632;BME280;48703;51.248;-0.546;2022-08-19T03:50:43;100707;;;19.22;100.00
62632;BME280;48703;51.248;-0.546;2022-08-19T03:53:45;100704;;;19.21;100.00
62632;BME280;48703;51.248;-0.546;2022-08-19T03:56:47;100708;;;19.21;100.00
62632;BME280;48703;51.248;-0.546;2022-08-19T03:59:49;100713;;;19.21;100.00
62632;BME280;48703;51.248;-0.546;2022-08-19T04:02:51;100718;;;19.20;100.00
62632;BME280;48703;51.248;-0.546;2022-08-19T04:05:53;100722;;;19.19;100.00
62632;BME280;48703;51.248;-0.546;2022-08-19T04:08:55;100723;;;19.18;100.00
62632;BME280;48703;51.248;-0.546;2022-08-19T04:11:57;100720;;;19.17;100.00
62632;BME280;48703;51.248;-0.546;2022-08-19T04:14:58;100722;;;19.16;100.00
62632;BME280;48703;51.248;-0.546;2022-08-19T04:18:00;100722;;;19.14;100.00
62632;BME280;48703;51.248;-0.546;2022-08-19T04:21:02;100726;;;19.13;100.00
62632;BME280;48703;51.248;-0.546;2022-08-19T04:24:04;100727;;;19.14;100.00
62632;BME280;48703;51.248;-0.546;2022-08-19T04:27:06;100729;;;19.12;100.00
62632;BME280;48703;51.248;-0.546;2022-08-19T04:30:08;100727;;;19.10;100.00
62632;BME280;48703;51.248;-0.546;2022-08-19T04:33:11;100722;;;19.08;100.00
62632;BME280;48703;51.248;-0.546;2022-08-19T04:36:15;100722;;;19.08;100.00
62632;BME280;48703;51.248;-0.546;2022-08-19T04:39:14;100728;;;19.07;100.00
62632;BME280;48703;51.248;-0.546;2022-08-19T04:42:16;100730;;;19.06;100.00
62632;BME280;48703;51.248;-0.546;2022-08-19T04:45:17;100730;;;19.04;100.00
62632;BME280;48703;51.248;-0.546;2022-08-19T04:48:19;100735;;;19.04;100.00
62632;BME280;48703;51.248;-0.546;2022-08-19T04:51:21;100742;;;19.04;100.00
62632;BME280;48703;51.248;-0.546;2022-08-19T04:54:24;100749;;;19.02;100.00
62632;BME280;48703;51.248;-0.546;2022-08-19T04:57:25;100753;;;19.01;100.00
62632;BME280;48703;51.248;-0.546;2022-08-19T05:00:27;100758;;;19.00;100.00
62632;BME280;48703;51.248;-0.546;2022-08-19T05:03:28;100760;;;18.98;100.00
62632;BME280;48703;51.248;-0.546;2022-08-19T05:06:31;100764;;;19.00;100.00
62632;BME280;48703;51.248;-0.546;2022-08-19T05:09:32;100774;;;19.00;100.00
62632;BME280;48703;51.248;-0.546;2022-08-19T05:12:34;100777;;;18.99;100.00
62632;BME280;48703;51.248;-0.546;2022-08-19T05:15:36;100772;;;18.99;100.00
62632;BME280;48703;51.248;-0.546;2022-08-19T05:18:38;100779;;;19.00;100.00
62632;BME280;48703;51.248;-0.546;2022-08-19T05:21:40;100779;;;19.02;100.00
62632;BME280;48703;51.248;-0.546;2022-08-19T05:24:42;100776;;;19.02;100.00
62632;BME280;48703;51.248;-0.546;2022-08-19T05:27:44;100773;;;19.02;100.00
62632;BME280;48703;51.248;-0.546;2022-08-19T05:30:45;100775;;;19.02;100.00
62632;BME280;48703;51.248;-0.546;2022-08-19T05:33:47;100779;;;19.01;100.00
62632;BME280;48703;51.248;-0.546;2022-08-19T05:36:50;100777;;;19.03;100.00
62632;BME280;48703;51.248;-0.546;2022-08-19T05:39:51;100770;;;19.03;100.00
62632;BME280;48703;51.248;-0.546;2022-08-19T05:42:53;100764;;;19.04;100.00
62632;BME280;48703;51.248;-0.546;2022-08-19T05:45:55;100759;;;19.04;100.00
62632;BME280;48703;51.248;-0.546;2022-08-19T05:48:57;100764;;;19.05;100.00
62632;BME280;48703;51.248;-0.546;2022-08-19T05:52:01;100769;;;19.05;100.00
62632;BME280;48703;51.248;-0.546;2022-08-19T05:55:01;100770;;;19.05;100.00
62632;BME280;48703;51.248;-0.546;2022-08-19T05:58:03;100777;;;19.06;100.00
62632;BME280;48703;51.248;-0.546;2022-08-19T06:01:08;100779;;;19.05;100.00
62632;BME280;48703;51.248;-0.546;2022-08-19T06:04:06;100779;;;19.07;100.00
62632;BME280;48703;51.248;-0.546;2022-08-19T06:07:08;100789;;;19.07;100.00
62632;BME280;48703;51.248;-0.546;2022-08-19T06:10:10;100795;;;19.07;100.00
62632;BME280;48703;51.248;-0.546;2022-08-19T06:13:12;100798;;;19.07;100.00
62632;BME280;48703;51.248;-0.546;2022-08-19T06:16:14;100799;;;19.06;100.00
62632;BME280;48703;51.248;-0.546;2022-08-19T06:19:16;100802;;;19.05;100.00
62632;BME280;48703;51.248;-0.546;2022-08-19T06:22:18;100802;;;19.05;100.00
62632;BME280;48703;51.248;-0.546;2022-08-19T06:25:20;100800;;;19.05;100.00
62632;BME280;48703;51.248;-0.546;2022-08-19T06:28:21;100798;;;19.03;100.00
62632;BME280;48703;51.248;-0.546;2022-08-19T06:31:24;100794;;;19.00;100.00
62632;BME280;48703;51.248;-0.546;2022-08-19T06:34:26;100802;;;19.00;100.00
62632;BME280;48703;51.248;-0.546;2022-08-19T06:37:27;100803;;;18.98;100.00
62632;BME280;48703;51.248;-0.546;2022-08-19T06:40:29;100802;;;18.97;100.00
62632;BME280;48703;51.248;-0.546;2022-08-19T06:43:31;100800;;;18.97;100.00
62632;BME280;48703;51.248;-0.546;2022-08-19T06:46:33;100800;;;18.97;100.00
62632;BME280;48703;51.248;-0.546;2022-08-19T06:49:35;100806;;;18.98;100.00
62632;BME280;48703;51.248;-0.546;2022-08-19T06:52:37;100809;;;19.00;100.00
62632;BME280;48703;51.248;-0.546;2022-08-19T06:55:38;100805;;;19.02;100.00
62632;BME280;48703;51.248;-0.546;2022-08-19T06:58:40;100801;;;19.04;100.00
62632;BME280;48703;51.248;-0.546;2022-08-19T07:01:43;100797;;;19.06;100.00
62632;BME280;48703;51.248;-0.546;2022-08-19T07:04:44;100802;;;19.09;100.00
62632;BME280;48703;51.248;-0.546;2022-08-19T07:07:46;100807;;;19.11;100.00
62632;BME280;48703;51.248;-0.546;2022-08-19T07:10:48;100812;;;19.13;100.00
62632;BME280;48703;51.248;-0.546;2022-08-19T07:13:50;100815;;;19.15;100.00
62632;BME280;48703;51.248;-0.546;2022-08-19T07:16:53;100816;;;19.16;100.00
62632;BME280;48703;51.248;-0.546;2022-08-19T07:19:54;100818;;;19.19;100.00
62632;BME280;48703;51.248;-0.546;2022-08-19T07:22:55;100820;;;19.22;100.00
62632;BME280;48703;51.248;-0.546;2022-08-19T07:25:57;100818;;;19.25;100.00
62632;BME280;48703;51.248;-0.546;2022-08-19T07:28:59;100819;;;19.30;100.00
62632;BME280;48703;51.248;-0.546;2022-08-19T07:32:02;100818;;;19.35;100.00
62632;BME280;48703;51.248;-0.546;2022-08-19T07:35:03;100817;;;19.43;100.00
62632;BME280;48703;51.248;-0.546;2022-08-19T07:38:05;100816;;;19.46;100.00
62632;BME280;48703;51.248;-0.546;2022-08-19T07:41:08;100818;;;19.51;100.00
62632;BME280;48703;51.248;-0.546;2022-08-19T07:44:09;100819;;;19.53;100.00
62632;BME280;48703;51.248;-0.546;2022-08-19T07:47:11;100819;;;19.56;100.00
62632;BME280;48703;51.248;-0.546;2022-08-19T07:50:13;100825;;;19.59;100.00
62632;BME280;48703;51.248;-0.546;2022-08-19T07:53:14;100824;;;19.59;100.00
62632;BME280;48703;51.248;-0.546;2022-08-19T07:56:17;100827;;;19.60;100.00
62632;BME280;48703;51.248;-0.546;2022-08-19T07:59:18;100831;;;19.60;100.00
62632;BME280;48703;51.248;-0.546;2022-08-19T08:02:20;100830;;;19.59;100.00
62632;BME280;48703;51.248;-0.546;2022-08-19T08:05:22;100833;;;19.56;100.00
62632;BME280;48703;51.248;-0.546;2022-08-19T08:08:24;100836;;;19.57;100.00
62632;BME280;48703;51.248;-0.546;2022-08-19T08:11:26;100835;;;19.57;100.00
62632;BME280;48703;51.248;-0.546;2022-08-19T08:14:28;100835;;;19.56;100.00
62632;BME280;48703;51.248;-0.546;2022-08-19T08:17:30;100840;;;19.55;100.00
62632;BME280;48703;51.248;-0.546;2022-08-19T08:20:32;100842;;;19.56;100.00
62632;BME280;48703;51.248;-0.546;2022-08-19T08:23:33;100843;;;19.57;100.00
62632;BME280;48703;51.248;-0.546;2022-08-19T08:26:35;100842;;;19.58;100.00
62632;BME280;48703;51.248;-0.546;2022-08-19T08:29:37;100842;;;19.62;100.00
62632;BME280;48703;51.248;-0.546;2022-08-19T08:32:39;100843;;;19.70;100.00
62632;BME280;48703;51.248;-0.546;2022-08-19T08:35:41;100841;;;19.76;100.00
62632;BME280;48703;51.248;-0.546;2022-08-19T08:38:43;100841;;;19.80;100.00
62632;BME280;48703;51.248;-0.546;2022-08-19T08:41:47;100842;;;19.79;100.00
62632;BME280;48703;51.248;-0.546;2022-08-19T08:44:48;100840;;;19.78;100.00
62632;BME280;48703;51.248;-0.546;2022-08-19T08:47:49;100844;;;19.78;100.00
62632;BME280;48703;51.248;-0.546;2022-08-19T08:50:50;100845;;;19.83;100.00
62632;BME280;48703;51.248;-0.546;2022-08-19T08:53:52;100843;;;19.84;100.00
62632;BME280;48703;51.248;-0.546;2022-08-19T08:56:54;100844;;;19.84;100.00
62632;BME280;48703;51.248;-0.546;2022-08-19T08:59:56;100846;;;19.86;100.00
62632;BME280;48703;51.248;-0.546;2022-08-19T09:02:59;100845;;;19.86;100.00
62632;BME280;48703;51.248;-0.546;2022-08-19T09:06:01;100845;;;19.83;100.00
62632;BME280;48703;51.248;-0.546;2022-08-19T09:09:03;100844;;;19.83;100.00
62632;BME280;48703;51.248;-0.546;2022-08-19T09:12:05;100843;;;19.85;100.00
62632;BME280;48703;51.248;-0.546;2022-08-19T09:15:07;100842;;;19.87;100.00
62632;BME280;48703;51.248;-0.546;2022-08-19T09:18:08;100843;;;19.92;100.00
62632;BME280;48703;51.248;-0.546;2022-08-19T09:21:09;100846;;;20.00;100.00
62632;BME280;48703;51.248;-0.546;2022-08-19T09:24:11;100841;;;20.08;100.00
62632;BME280;48703;51.248;-0.546;2022-08-19T09:27:13;100840;;;20.15;100.00
62632;BME280;48703;51.248;-0.546;2022-08-19T09:30:16;100837;;;20.21;100.00
62632;BME280;48703;51.248;-0.546;2022-08-19T09:33:17;100839;;;20.29;100.00
62632;BME280;48703;51.248;-0.546;2022-08-19T09:36:20;100843;;;20.35;100.00
62632;BME280;48703;51.248;-0.546;2022-08-19T09:39:21;100844;;;20.37;100.00
62632;BME280;48703;51.248;-0.546;2022-08-19T09:42:23;100845;;;20.35;100.00
62632;BME280;48703;51.248;-0.546;2022-08-19T09:45:25;100847;;;20.34;100.00
62632;BME280;48703;51.248;-0.546;2022-08-19T09:48:26;100851;;;20.33;100.00
62632;BME280;48703;51.248;-0.546;2022-08-19T09:51:28;100857;;;20.33;100.00
62632;BME280;48703;51.248;-0.546;2022-08-19T09:54:30;100862;;;20.27;100.00
62632;BME280;48703;51.248;-0.546;2022-08-19T09:57:32;100858;;;20.21;100.00
62632;BME280;48703;51.248;-0.546;2022-08-19T10:00:34;100860;;;20.20;100.00
62632;BME280;48703;51.248;-0.546;2022-08-19T10:03:36;100861;;;20.23;100.00
62632;BME280;48703;51.248;-0.546;2022-08-19T10:06:38;100861;;;20.24;100.00
62632;BME280;48703;51.248;-0.546;2022-08-19T10:09:40;100866;;;20.23;100.00
62632;BME280;48703;51.248;-0.546;2022-08-19T10:12:42;100864;;;20.23;100.00
62632;BME280;48703;51.248;-0.546;2022-08-19T10:15:44;100863;;;20.26;100.00
62632;BME280;48703;51.248;-0.546;2022-08-19T10:18:45;100861;;;20.34;100.00
62632;BME280;48703;51.248;-0.546;2022-08-19T10:21:47;100863;;;20.41;100.00
62632;BME280;48703;51.248;-0.546;2022-08-19T10:24:49;100868;;;20.44;100.00
62632;BME280;48703;51.248;-0.546;2022-08-19T10:27:51;100872;;;20.46;100.00
62632;BME280;48703;51.248;-0.546;2022-08-19T10:30:53;100874;;;20.50;100.00
62632;BME280;48703;51.248;-0.546;2022-08-19T10:33:55;100872;;;20.53;100.00
62632;BME280;48703;51.248;-0.546;2022-08-19T10:36:57;100864;;;20.62;100.00
62632;BME280;48703;51.248;-0.546;2022-08-19T10:39:59;100865;;;20.63;97.29
62632;BME280;48703;51.248;-0.546;2022-08-19T10:43:01;100863;;;20.67;99.97
62632;BME280;48703;51.248;-0.546;2022-08-19T10:46:03;100875;;;20.72;96.31
62632;BME280;48703;51.248;-0.546;2022-08-19T10:49:05;100878;;;20.69;96.27
62632;BME280;48703;51.248;-0.546;2022-08-19T10:52:06;100878;;;20.68;95.24
62632;BME280;48703;51.248;-0.546;2022-08-19T10:55:08;100879;;;20.62;94.50
62632;BME280;48703;51.248;-0.546;2022-08-19T10:58:11;100884;;;20.60;91.96
62632;BME280;48703;51.248;-0.546;2022-08-19T11:01:12;100884;;;20.61;90.30
62632;BME280;48703;51.248;-0.546;2022-08-19T11:04:14;100883;;;20.66;89.35
62632;BME280;48703;51.248;-0.546;2022-08-19T11:07:16;100882;;;20.66;85.67
62632;BME280;48703;51.248;-0.546;2022-08-19T11:10:18;100885;;;20.73;86.55
62632;BME280;48703;51.248;-0.546;2022-08-19T11:13:20;100881;;;20.78;87.36
62632;BME280;48703;51.248;-0.546;2022-08-19T11:16:22;100884;;;20.86;81.47
62632;BME280;48703;51.248;-0.546;2022-08-19T11:19:23;100883;;;20.95;82.55
62632;BME280;48703;51.248;-0.546;2022-08-19T11:22:25;100885;;;21.06;84.93
62632;BME280;48703;51.248;-0.546;2022-08-19T11:25:27;100890;;;21.07;78.90
62632;BME280;48703;51.248;-0.546;2022-08-19T11:28:29;100891;;;21.03;75.45
62632;BME280;48703;51.248;-0.546;2022-08-19T11:31:33;100890;;;20.97;76.40
62632;BME280;48703;51.248;-0.546;2022-08-19T11:34:33;100891;;;20.94;76.06
62632;BME280;48703;51.248;-0.546;2022-08-19T11:37:35;100894;;;21.00;77.76
62632;BME280;48703;51.248;-0.546;2022-08-19T11:40:37;100888;;;21.04;73.35
62632;BME280;48703;51.248;-0.546;2022-08-19T11:43:39;100891;;;21.08;71.37
62632;BME280;48703;51.248;-0.546;2022-08-19T11:46:41;100891;;;21.04;71.86
62632;BME280;48703;51.248;-0.546;2022-08-19T11:49:42;100893;;;21.03;74.85
62632;BME280;48703;51.248;-0.546;2022-08-19T11:52:44;100893;;;21.04;74.25
62632;BME280;48703;51.248;-0.546;2022-08-19T11:55:46;100890;;;21.07;72.88
62632;BME280;48703;51.248;-0.546;2022-08-19T11:58:48;100890;;;21.03;68.82
62632;BME280;48703;51.248;-0.546;2022-08-19T12:01:50;100893;;;20.98;68.59
62632;BME280;48703;51.248;-0.546;2022-08-19T12:04:52;100895;;;20.93;66.98
62632;BME280;48703;51.248;-0.546;2022-08-19T12:07:54;100897;;;20.88;66.48
62632;BME280;48703;51.248;-0.546;2022-08-19T12:10:55;100891;;;20.81;65.83
62632;BME280;48703;51.248;-0.546;2022-08-19T12:13:57;100895;;;20.79;66.58
62632;BME280;48703;51.248;-0.546;2022-08-19T12:16:59;100895;;;20.79;65.56
62632;BME280;48703;51.248;-0.546;2022-08-19T12:20:02;100900;;;20.81;67.03
62632;BME280;48703;51.248;-0.546;2022-08-19T12:23:03;100898;;;20.80;66.48
62632;BME280;48703;51.248;-0.546;2022-08-19T12:26:05;100898;;;20.80;69.25
62632;BME280;48703;51.248;-0.546;2022-08-19T12:29:07;100893;;;20.77;67.58
62632;BME280;48703;51.248;-0.546;2022-08-19T12:32:09;100889;;;20.79;69.60
62632;BME280;48703;51.248;-0.546;2022-08-19T12:35:11;100891;;;20.81;67.82
62632;BME280;48703;51.248;-0.546;2022-08-19T12:38:13;100892;;;20.83;67.81
62632;BME280;48703;51.248;-0.546;2022-08-19T12:41:15;100882;;;20.93;68.32
62632;BME280;48703;51.248;-0.546;2022-08-19T12:44:16;100874;;;21.01;65.77
62632;BME280;48703;51.248;-0.546;2022-08-19T12:47:18;100875;;;21.10;67.50
62632;BME280;48703;51.248;-0.546;2022-08-19T12:50:20;100876;;;21.20;64.02
62632;BME280;48703;51.248;-0.546;2022-08-19T12:53:22;100873;;;21.24;62.65
62632;BME280;48703;51.248;-0.546;2022-08-19T12:56:24;100870;;;21.23;65.82
62632;BME280;48703;51.248;-0.546;2022-08-19T12:59:26;100871;;;21.28;67.98
62632;BME280;48703;51.248;-0.546;2022-08-19T13:02:28;100871;;;21.28;64.98
62632;BME280;48703;51.248;-0.546;2022-08-19T13:05:30;100867;;;21.32;60.73
62632;BME280;48703;51.248;-0.546;2022-08-19T13:08:32;100863;;;21.37;61.12
62632;BME280;48703;51.248;-0.546;2022-08-19T13:11:34;100862;;;21.30;57.82
62632;BME280;48703;51.248;-0.546;2022-08-19T13:14:35;100863;;;21.31;57.78
62632;BME280;48703;51.248;-0.546;2022-08-19T13:17:38;100866;;;21.33;55.16
62632;BME280;48703;51.248;-0.546;2022-08-19T13:20:39;100864;;;21.34;54.21
62632;BME280;48703;51.248;-0.546;2022-08-19T13:23:41;100862;;;21.33;54.38
62632;BME280;48703;51.248;-0.546;2022-08-19T13:26:43;100865;;;21.36;55.45
62632;BME280;48703;51.248;-0.546;2022-08-19T13:29:45;100858;;;21.40;52.47
62632;BME280;48703;51.248;-0.546;2022-08-19T13:32:47;100856;;;21.47;52.12
62632;BME280;48703;51.248;-0.546;2022-08-19T13:35:49;100866;;;21.48;49.86
62632;BME280;48703;51.248;-0.546;2022-08-19T13:38:51;100860;;;21.47;49.70
62632;BME280;48703;51.248;-0.546;2022-08-19T13:41:52;100867;;;21.54;51.50
62632;BME280;48703;51.248;-0.546;2022-08-19T13:44:54;100870;;;21.55;49.46
62632;BME280;48703;51.248;-0.546;2022-08-19T13:47:56;100875;;;21.56;49.81
62632;BME280;48703;51.248;-0.546;2022-08-19T13:50:58;100867;;;21.56;49.57
62632;BME280;48703;51.248;-0.546;2022-08-19T13:54:00;100873;;;21.58;48.87
62632;BME280;48703;51.248;-0.546;2022-08-19T13:57:02;100858;;;21.57;49.82
62632;BME280;48703;51.248;-0.546;2022-08-19T14:00:05;100865;;;21.62;48.31
62632;BME280;48703;51.248;-0.546;2022-08-19T14:03:06;100869;;;21.80;46.30
62632;BME280;48703;51.248;-0.546;2022-08-19T14:06:08;100857;;;21.83;48.06
62632;BME280;48703;51.248;-0.546;2022-08-19T14:09:10;100853;;;21.79;49.74
62632;BME280;48703;51.248;-0.546;2022-08-19T14:12:11;100859;;;21.83;46.89
62632;BME280;48703;51.248;-0.546;2022-08-19T14:15:14;100863;;;21.95;48.34
62632;BME280;48703;51.248;-0.546;2022-08-19T14:18:16;100866;;;22.01;45.06
62632;BME280;48703;51.248;-0.546;2022-08-19T14:21:19;100861;;;22.02;44.51
62632;BME280;48703;51.248;-0.546;2022-08-19T14:24:19;100866;;;22.07;45.39
62632;BME280;48703;51.248;-0.546;2022-08-19T14:27:21;100865;;;22.14;47.10
62632;BME280;48703;51.248;-0.546;2022-08-19T14:30:24;100865;;;22.18;45.42
62632;BME280;48703;51.248;-0.546;2022-08-19T14:33:25;100873;;;22.26;45.80
62632;BME280;48703;51.248;-0.546;2022-08-19T14:36:27;100870;;;22.29;46.66
62632;BME280;48703;51.248;-0.546;2022-08-19T14:39:28;100871;;;22.34;45.90
62632;BME280;48703;51.248;-0.546;2022-08-19T14:42:30;100871;;;22.40;46.97
62632;BME280;48703;51.248;-0.546;2022-08-19T14:45:34;100881;;;22.47;46.28
62632;BME280;48703;51.248;-0.546;2022-08-19T14:48:34;100877;;;22.43;46.69
62632;BME280;48703;51.248;-0.546;2022-08-19T14:51:36;100879;;;22.45;45.60
62632;BME280;48703;51.248;-0.546;2022-08-19T14:54:38;100878;;;22.47;45.53
62632;BME280;48703;51.248;-0.546;2022-08-19T14:57:40;100871;;;22.49;46.45
62632;BME280;48703;51.248;-0.546;2022-08-19T15:00:42;100872;;;22.51;46.21
62632;BME280;48703;51.248;-0.546;2022-08-19T15:03:44;100872;;;22.59;47.01
62632;BME280;48703;51.248;-0.546;2022-08-19T15:06:45;100881;;;22.69;44.00
62632;BME280;48703;51.248;-0.546;2022-08-19T15:09:48;100881;;;22.69;43.94
62632;BME280;48703;51.248;-0.546;2022-08-19T15:12:49;100881;;;22.67;44.71
62632;BME280;48703;51.248;-0.546;2022-08-19T15:15:51;100874;;;22.66;44.63
62632;BME280;48703;51.248;-0.546;2022-08-19T15:18:54;100875;;;22.68;45.46
62632;BME280;48703;51.248;-0.546;2022-08-19T15:21:55;100870;;;22.69;45.17
62632;BME280;48703;51.248;-0.546;2022-08-19T15:24:57;100878;;;22.71;43.58
62632;BME280;48703;51.248;-0.546;2022-08-19T15:27:59;100883;;;22.70;44.78
62632;BME280;48703;51.248;-0.546;2022-08-19T15:31:01;100887;;;22.75;45.62
62632;BME280;48703;51.248;-0.546;2022-08-19T15:34:03;100887;;;22.79;45.21
62632;BME280;48703;51.248;-0.546;2022-08-19T15:37:04;100888;;;22.82;44.27
62632;BME280;48703;51.248;-0.546;2022-08-19T15:40:07;100898;;;22.93;43.30
62632;BME280;48703;51.248;-0.546;2022-08-19T15:43:08;100899;;;22.96;44.04
62632;BME280;48703;51.248;-0.546;2022-08-19T15:46:10;100896;;;22.94;43.76
62632;BME280;48703;51.248;-0.546;2022-08-19T15:49:13;100893;;;22.97;44.55
62632;BME280;48703;51.248;-0.546;2022-08-19T15:52:14;100898;;;23.06;44.53
62632;BME280;48703;51.248;-0.546;2022-08-19T15:55:16;100904;;;23.11;44.18
62632;BME280;48703;51.248;-0.546;2022-08-19T15:58:18;100902;;;23.12;43.88
62632;BME280;48703;51.248;-0.546;2022-08-19T16:01:20;100906;;;23.13;43.75
62632;BME280;48703;51.248;-0.546;2022-08-19T16:04:22;100909;;;23.08;43.84
62632;BME280;48703;51.248;-0.546;2022-08-19T16:07:23;100912;;;23.06;43.67